Terminal Aerodrome Forecast
Issued by NWS

Home | Current Version | Previous Version | Text Only | Print | Product List | Glossary On
Versions: 1 2 3 4 5 6 7 8 9 10 11 12 13 14 15 16 17 18 19 20 21 22 23
000
FTUS46 KSEW 230300 AAA
TAFBFI
TAF AMD
KBFI 230301Z 2303/2324 14008KT P6SM SCT024 BKN040
     FM230600 17007KT P6SM VCSH BKN024
     FM231000 17011G18KT P6SM -SHRA SCT011 OVC024
     FM231200 17014G24KT 5SM -SHRA BR SCT012 OVC018
     FM231600 20014G22KT P6SM VCSH SCT015 BKN025
     FM232100 21010G18KT P6SM VCSH SCT025 BKN040=

USA.gov is the U.S. government's official web portal to all federal, state and local government web resources and services.